Time;durP1;ratioP1;P1;durP2;ratioP2;P2;SDS_P1;SDS_P2;PMS_P1;PMS_P2;Temp;Humidity;BMP_temperature;BMP_pressure;BME280_temperature;BME280_humidity;BME280_pressure;Samples;Min_cycle;Max_cycle;Signal;HPM_P1;HPM_P2
2023/12/02 00:00:24;;;;;;;48.47;25.15;;;-0.20;99.90;;;;;;4916293;29;20036;-66
2023/12/02 00:02:50;;;;;;;49.63;25.30;;;-0.10;99.90;;;;;;4914802;29;20400;-65
2023/12/02 00:05:15;;;;;;;49.38;24.60;;;-0.20;99.90;;;;;;4915824;29;20036;-65
2023/12/02 00:07:41;;;;;;;51.35;25.25;;;-0.10;99.90;;;;;;4915082;29;20040;-65
2023/12/02 00:10:07;;;;;;;50.42;26.48;;;-0.20;99.90;;;;;;4916273;29;20105;-65
2023/12/02 00:12:33;;;;;;;48.03;24.77;;;-0.20;99.90;;;;;;4897982;29;20039;-65
2023/12/02 00:14:58;;;;;;;49.33;25.45;;;-0.20;99.90;;;;;;4915752;29;20036;-65
2023/12/02 00:17:24;;;;;;;53.50;24.77;;;-0.20;99.90;;;;;;4915946;29;20116;-65
2023/12/02 00:19:49;;;;;;;51.00;25.77;;;-0.10;99.90;;;;;;4914921;29;20505;-65
2023/12/02 00:22:15;;;;;;;50.28;25.10;;;-0.10;99.90;;;;;;4913413;29;20032;-65
2023/12/02 00:24:40;;;;;;;48.67;24.77;;;-0.20;99.90;;;;;;4914062;29;20490;-65
2023/12/02 00:27:06;;;;;;;53.15;26.38;;;-0.30;99.90;;;;;;4915824;29;20024;-65
2023/12/02 00:29:32;;;;;;;51.50;25.38;;;-0.30;99.90;;;;;;4920996;29;20111;-65
2023/12/02 00:31:57;;;;;;;47.70;24.70;;;-0.30;99.90;;;;;;4922060;29;20029;-65
2023/12/02 00:34:23;;;;;;;50.50;24.60;;;-0.20;99.90;;;;;;4915878;29;20046;-65
2023/12/02 00:36:49;;;;;;;48.65;24.58;;;-0.20;99.90;;;;;;4914107;29;20028;-65
2023/12/02 00:39:15;;;;;;;50.17;24.83;;;-0.10;99.90;;;;;;4915314;29;20043;-64
2023/12/02 00:41:41;;;;;;;51.70;25.02;;;-0.20;99.90;;;;;;4914207;29;20020;-65
2023/12/02 00:44:07;;;;;;;50.65;26.35;;;-0.20;99.90;;;;;;4898816;29;20032;-64
2023/12/02 00:46:33;;;;;;;48.75;25.00;;;-0.20;99.90;;;;;;4914169;29;20492;-64
2023/12/02 00:48:59;;;;;;;48.75;25.02;;;-0.20;99.90;;;;;;4915628;29;20124;-65
2023/12/02 00:51:24;;;;;;;53.97;26.75;;;-0.20;99.90;;;;;;4915024;29;20036;-65
2023/12/02 00:53:50;;;;;;;51.17;27.13;;;-0.30;99.90;;;;;;4914389;29;20123;-64
2023/12/02 00:56:16;;;;;;;46.58;25.70;;;-0.30;99.90;;;;;;4914996;29;20027;-64
2023/12/02 00:58:42;;;;;;;50.08;26.42;;;-0.20;99.90;;;;;;4914683;29;20059;-65
2023/12/02 01:01:09;;;;;;;49.38;25.75;;;-0.30;99.90;;;;;;4915098;29;20028;-64
2023/12/02 01:03:34;;;;;;;50.65;26.05;;;-0.30;99.90;;;;;;4914248;29;20103;-65
2023/12/02 01:06:00;;;;;;;53.25;25.50;;;-0.30;99.90;;;;;;4914941;29;20582;-64
2023/12/02 01:08:25;;;;;;;54.78;26.48;;;-0.30;99.90;;;;;;4915089;29;20150;-64
2023/12/02 01:10:51;;;;;;;51.05;25.33;;;-0.30;99.90;;;;;;4914350;29;20127;-64
2023/12/02 01:13:16;;;;;;;50.05;24.38;;;-0.20;99.90;;;;;;4914969;29;20056;-63
2023/12/02 01:15:42;;;;;;;47.78;24.92;;;-0.30;99.90;;;;;;4913147;29;20048;-65
2023/12/02 01:18:08;;;;;;;49.15;25.38;;;-0.20;99.90;;;;;;4914748;29;20036;-65
2023/12/02 01:20:33;;;;;;;48.75;25.23;;;-0.20;99.90;;;;;;4912267;29;20043;-64
2023/12/02 01:22:59;;;;;;;48.53;25.52;;;-0.20;99.90;;;;;;4915532;29;20024;-65
2023/12/02 01:25:24;;;;;;;54.35;27.35;;;-0.20;99.90;;;;;;4915356;29;20529;-64
2023/12/02 01:27:50;;;;;;;49.70;25.02;;;-0.20;99.90;;;;;;4913492;29;20060;-65
2023/12/02 01:30:16;;;;;;;48.75;25.13;;;-0.20;99.90;;;;;;4914993;29;20028;-65
2023/12/02 01:32:41;;;;;;;51.60;26.45;;;-0.20;99.90;;;;;;4913436;29;20055;-65
2023/12/02 01:35:07;;;;;;;56.30;27.45;;;-0.20;99.90;;;;;;4914943;29;20032;-65
2023/12/02 01:37:33;;;;;;;49.58;26.13;;;-0.20;99.90;;;;;;4913011;29;20052;-64
2023/12/02 01:39:59;;;;;;;51.40;26.20;;;-0.20;99.90;;;;;;4914879;29;20167;-63
2023/12/02 01:42:24;;;;;;;51.75;25.63;;;-0.30;99.90;;;;;;4914088;29;20032;-63
2023/12/02 01:44:50;;;;;;;52.28;26.75;;;-0.30;99.90;;;;;;4913842;29;20028;-63
2023/12/02 01:47:15;;;;;;;50.95;27.02;;;-0.30;99.90;;;;;;4914191;29;20032;-63
2023/12/02 01:49:43;;;;;;;46.20;24.52;;;-0.30;99.90;;;;;;4896425;29;20036;-63
2023/12/02 01:52:08;;;;;;;49.17;25.20;;;-0.30;99.90;;;;;;4914158;29;20043;-63
2023/12/02 01:54:34;;;;;;;48.17;24.42;;;-0.30;99.90;;;;;;4913281;29;20044;-63
2023/12/02 01:57:00;;;;;;;49.42;25.90;;;-0.30;99.90;;;;;;4913916;29;20371;-63
2023/12/02 01:59:26;;;;;;;48.85;24.73;;;-0.30;99.90;;;;;;4914629;29;20103;-63
2023/12/02 02:01:52;;;;;;;48.95;26.23;;;-0.30;99.90;;;;;;4913046;29;20151;-63
2023/12/02 02:04:18;;;;;;;50.17;24.92;;;-0.30;99.90;;;;;;4914209;29;20035;-63
2023/12/02 02:06:44;;;;;;;50.33;26.75;;;-0.30;99.90;;;;;;4913066;29;20039;-63
2023/12/02 02:09:10;;;;;;;54.25;24.52;;;-0.30;99.90;;;;;;4914633;29;20035;-63
2023/12/02 02:11:36;;;;;;;51.50;25.08;;;-0.40;99.90;;;;;;4912899;29;20024;-63
2023/12/02 02:14:01;;;;;;;47.47;25.55;;;-0.40;99.90;;;;;;4914084;29;20039;-63
2023/12/02 02:16:27;;;;;;;49.75;24.08;;;-0.50;99.90;;;;;;4913399;29;20032;-63
2023/12/02 02:18:52;;;;;;;46.88;24.95;;;-0.40;99.90;;;;;;4915641;29;20020;-64
2023/12/02 02:21:21;;;;;;;46.53;24.98;;;-0.40;99.90;;;;;;4933012;29;20103;-63
2023/12/02 02:23:47;;;;;;;55.13;24.88;;;-0.40;99.90;;;;;;4925192;29;20032;-63
2023/12/02 02:26:12;;;;;;;47.13;24.70;;;-0.40;99.90;;;;;;4922129;29;20063;-63
2023/12/02 02:28:38;;;;;;;43.35;23.13;;;-0.40;99.90;;;;;;4917386;29;20039;-63
2023/12/02 02:31:03;;;;;;;47.95;24.27;;;-0.40;99.90;;;;;;4918353;29;20174;-63
2023/12/02 02:33:31;;;;;;;50.53;23.75;;;-0.40;99.90;;;;;;4917713;29;20036;-63
2023/12/02 02:35:57;;;;;;;50.17;24.85;;;-0.40;99.90;;;;;;4917027;29;20458;-63
2023/12/02 02:38:24;;;;;;;48.05;25.15;;;-0.40;99.90;;;;;;4917627;29;20055;-63
2023/12/02 02:40:49;;;;;;;49.17;25.17;;;-0.40;99.90;;;;;;4916993;29;20031;-63
2023/12/02 02:43:15;;;;;;;48.03;24.30;;;-0.40;99.90;;;;;;4917406;29;20024;-63
2023/12/02 02:45:40;;;;;;;47.95;23.95;;;-0.40;99.90;;;;;;4916574;29;20382;-63
2023/12/02 02:48:07;;;;;;;48.55;24.80;;;-0.50;99.90;;;;;;4918192;29;20055;-63
2023/12/02 02:50:33;;;;;;;51.97;25.90;;;-0.50;99.90;;;;;;4916274;29;20034;-63
2023/12/02 02:52:58;;;;;;;51.25;25.90;;;-0.50;99.90;;;;;;4917445;29;20024;-63
2023/12/02 02:55:24;;;;;;;50.40;25.70;;;-0.50;99.90;;;;;;4917925;29;20389;-63
2023/12/02 02:57:49;;;;;;;51.88;25.88;;;-0.50;99.90;;;;;;4916437;29;20060;-63
2023/12/02 03:00:15;;;;;;;50.58;25.25;;;-0.50;99.90;;;;;;4917697;29;20070;-63
2023/12/02 03:02:41;;;;;;;52.40;26.00;;;-0.50;99.90;;;;;;4915948;29;20064;-63
2023/12/02 03:05:07;;;;;;;53.45;25.85;;;-0.50;99.90;;;;;;4900363;29;20032;-63
2023/12/02 03:07:33;;;;;;;49.60;24.63;;;-0.50;99.90;;;;;;4916244;29;20051;-63
2023/12/02 03:09:59;;;;;;;49.50;24.52;;;-0.60;99.90;;;;;;4917149;29;20056;-63
2023/12/02 03:12:25;;;;;;;56.63;27.35;;;-0.60;99.90;;;;;;4917005;29;20442;-63
2023/12/02 03:14:52;;;;;;;52.03;26.60;;;-0.60;99.90;;;;;;4916717;29;20534;-63
2023/12/02 03:17:18;;;;;;;51.28;25.85;;;-0.60;99.90;;;;;;4916948;29;20040;-63
2023/12/02 03:19:44;;;;;;;52.75;26.80;;;-0.60;99.90;;;;;;4915581;29;20031;-63
2023/12/02 03:22:09;;;;;;;54.45;28.13;;;-0.70;99.90;;;;;;4916391;29;20028;-63
2023/12/02 03:24:35;;;;;;;51.65;25.80;;;-0.60;99.90;;;;;;4916304;29;20063;-63
2023/12/02 03:27:02;;;;;;;52.03;26.70;;;-0.60;99.90;;;;;;4899526;29;20381;-63
2023/12/02 03:29:28;;;;;;;55.67;26.38;;;-0.60;99.90;;;;;;4916528;29;20373;-63
2023/12/02 03:31:53;;;;;;;51.85;25.90;;;-0.60;99.90;;;;;;4916321;29;20044;-63
2023/12/02 03:34:19;;;;;;;50.13;25.65;;;-0.60;99.90;;;;;;4899944;29;20036;-63
2023/12/02 03:36:45;;;;;;;57.72;27.40;;;-0.60;99.90;;;;;;4914848;29;20462;-63
2023/12/02 03:39:12;;;;;;;55.28;27.55;;;-0.70;99.90;;;;;;4916149;29;20024;-64
2023/12/02 03:41:40;;;;;;;55.45;26.25;;;-0.70;99.90;;;;;;4915458;29;20032;-63
2023/12/02 03:44:06;;;;;;;49.15;25.13;;;-0.70;99.90;;;;;;4916071;29;20036;-63
2023/12/02 03:46:31;;;;;;;58.40;28.60;;;;;;;;;;4915428;29;20058;-63
2023/12/02 03:48:57;;;;;;;50.75;25.83;;;;;;;;;;4916549;29;20020;-63
2023/12/02 03:51:23;;;;;;;58.17;28.08;;;;;;;;;;4916026;29;20039;-64
2023/12/02 03:53:50;;;;;;;58.80;26.98;;;;;;;;;;4915735;29;20637;-64
2023/12/02 03:56:16;;;;;;;50.45;25.33;;;;;;;;;;4916375;29;20020;-64
2023/12/02 03:58:42;;;;;;;49.88;24.38;;;;;;;;;;4915737;29;20111;-64
2023/12/02 04:01:08;;;;;;;51.17;26.20;;;;;;;;;;4915777;29;20023;-64
2023/12/02 04:03:34;;;;;;;52.15;26.65;;;;;;;;;;4915809;29;20079;-64
2023/12/02 04:06:00;;;;;;;53.08;27.23;;;;;;;;;;4916226;29;20028;-64
2023/12/02 04:08:26;;;;;;;53.30;26.30;;;;;;;;;;4915948;29;20377;-64
2023/12/02 04:10:52;;;;;;;52.47;25.30;;;;;;;;;;4915160;29;20028;-64
2023/12/02 04:13:18;;;;;;;48.63;24.70;;;;;;;;;;4916510;29;20016;-64
2023/12/02 04:15:46;;;;;;;52.50;26.15;;;;;;;;;;4915046;29;20498;-64
2023/12/02 04:18:12;;;;;;;52.17;25.80;;;;;;;;;;4915009;29;20087;-64
2023/12/02 04:20:38;;;;;;;50.88;25.25;;;;;;;;;;4901017;29;20360;-64
2023/12/02 04:23:04;;;;;;;50.92;25.02;;;;;;;;;;4916372;29;20035;-64
2023/12/02 04:25:31;;;;;;;47.72;22.63;;;;;;;;;;4915353;29;20032;-65
2023/12/02 04:27:57;;;;;;;45.30;22.60;;;;;;;;;;4915771;29;20035;-64
2023/12/02 04:30:22;;;;;;;44.55;23.58;;;;;;;;;;4915918;29;20024;-64
2023/12/02 04:32:48;;;;;;;49.22;24.60;;;;;;;;;;4914598;29;20552;-64
2023/12/02 04:35:15;;;;;;;49.20;23.20;;;;;;;;;;4915682;29;20063;-64
2023/12/02 04:37:41;;;;;;;44.53;22.58;;;;;;;;;;4913940;29;20048;-64
2023/12/02 04:40:11;;;;;;;44.35;22.52;;;;;;;;;;4915910;29;20558;-64
2023/12/02 04:42:41;;;;;;;48.00;22.20;;;;;;;;;;4914523;29;20159;-64
2023/12/02 04:45:08;;;;;;;41.83;21.52;;;;;;;;;;4915642;29;20043;-64
2023/12/02 04:47:34;;;;;;;40.60;21.45;;;;;;;;;;4914554;29;20040;-64
2023/12/02 04:50:00;;;;;;;44.20;22.80;;;;;;;;;;4915549;29;20028;-64
2023/12/02 04:52:26;;;;;;;42.90;22.60;;;;;;;;;;4914875;29;20031;-64
2023/12/02 04:54:52;;;;;;;42.67;22.60;;;;;;;;;;4914969;29;20051;-64
2023/12/02 04:57:18;;;;;;;40.90;21.30;;;;;;;;;;4914834;29;20024;-64
2023/12/02 04:59:44;;;;;;;39.03;21.23;;;;;;;;;;4914830;29;20124;-64
2023/12/02 05:02:10;;;;;;;36.40;20.65;;;;;;;;;;4915572;29;20395;-64
2023/12/02 05:04:35;;;;;;;38.35;19.70;;;;;;;;;;4914432;29;20116;-65
2023/12/02 05:07:01;;;;;;;34.90;18.20;;;;;;;;;;4914642;29;20020;-64
2023/12/02 05:09:27;;;;;;;36.88;18.60;;;;;;;;;;4914990;29;20020;-65
2023/12/02 05:11:53;;;;;;;36.35;18.80;;;;;;;;;;4914448;29;20524;-64
2023/12/02 05:14:19;;;;;;;36.83;20.52;;;;;;;;;;4915669;29;20032;-63
2023/12/02 05:16:45;;;;;;;42.20;20.23;;;;;;;;;;4913588;29;20016;-64
2023/12/02 05:19:11;;;;;;;40.22;20.85;;;;;;;;;;4914968;29;20432;-62
2023/12/02 05:21:37;;;;;;;35.45;19.65;;;;;;;;;;4913430;29;20032;-64
2023/12/02 05:24:03;;;;;;;35.70;18.80;;;;;;;;;;4914871;29;20020;-63
2023/12/02 05:26:30;;;;;;;36.95;19.33;;;;;;;;;;4913584;29;20100;-64
2023/12/02 05:28:56;;;;;;;38.42;20.35;;;;;;;;;;4915281;29;20024;-63
2023/12/02 05:31:22;;;;;;;39.33;21.02;;;;;;;;;;4914468;29;20035;-62
2023/12/02 05:33:48;;;;;;;38.15;20.67;;;;;;;;;;4913856;29;20036;-64
2023/12/02 05:36:14;;;;;;;44.25;21.50;;;;;;;;;;4914196;29;20075;-64
2023/12/02 05:38:40;;;;;;;42.55;21.35;;;;;;;;;;4913303;29;20059;-64
2023/12/02 05:41:06;;;;;;;42.58;21.75;;;;;;;;;;4914204;29;20017;-64
2023/12/02 05:43:32;;;;;;;39.45;22.00;;;;;;;;;;4913853;29;20103;-64
2023/12/02 05:45:58;;;;;;;34.20;18.55;;;;;;;;;;4914040;29;20136;-64
2023/12/02 05:48:24;;;;;;;36.08;18.73;;;;;;;;;;4914532;29;20024;-64
2023/12/02 05:50:51;;;;;;;36.33;19.70;;;;;;;;;;4913408;29;20083;-64
2023/12/02 05:53:16;;;;;;;34.95;18.88;;;;;;;;;;4914227;29;20505;-64
2023/12/02 05:55:42;;;;;;;33.35;18.40;;;;;;;;;;4912912;29;20032;-64
2023/12/02 05:58:08;;;;;;;33.58;17.80;;;;;;;;;;4914371;29;20032;-64
2023/12/02 06:00:35;;;;;;;35.17;19.02;;;;;;;;;;4912518;29;20028;-64
2023/12/02 06:03:01;;;;;;;32.85;18.35;;;;;;;;;;4914398;29;20390;-64
2023/12/02 06:05:27;;;;;;;32.70;18.50;;;;;;;;;;4914006;29;20028;-64
2023/12/02 06:07:53;;;;;;;31.30;18.83;;;;;;;;;;4913376;29;20043;-64
2023/12/02 06:10:19;;;;;;;32.40;17.98;;;;;;;;;;4914059;29;20024;-64
2023/12/02 06:12:45;;;;;;;36.50;19.52;;;;;;;;;;4912922;29;20028;-63
2023/12/02 06:15:12;;;;;;;33.15;18.00;;;;;;;;;;4914063;29;20055;-64
2023/12/02 06:17:38;;;;;;;34.58;18.65;;;;;;;;;;4912158;29;20541;-64
2023/12/02 06:20:06;;;;;;;34.13;18.80;;;;;;;;;;4913943;29;20354;-64
2023/12/02 06:22:32;;;;;;;33.28;17.80;;;;;;;;;;4913033;29;20475;-64
2023/12/02 06:24:58;;;;;;;35.55;18.17;;;;;;;;;;4896804;29;20104;-64
2023/12/02 06:27:24;;;;;;;29.33;16.80;;;;;;;;;;4913649;29;20107;-63
2023/12/02 06:29:50;;;;;;;32.97;16.90;;;;;;;;;;4896374;29;20028;-64
2023/12/02 06:32:16;;;;;;;32.67;17.75;;;;;;;;;;4913768;29;20025;-64
2023/12/02 06:34:42;;;;;;;35.58;17.77;;;;;;;;;;4895761;29;20046;-64
2023/12/02 06:37:08;;;;;;;34.13;18.77;;;;;;;;;;4913309;29;20048;-63
2023/12/02 06:39:34;;;;;;;40.40;20.42;;;;;;;;;;4912986;29;20035;-63
2023/12/02 06:42:00;;;;;;;38.17;20.05;;;;;;;;;;4913450;29;20139;-63
2023/12/02 06:44:26;;;;;;;40.17;21.45;;;;;;;;;;4913879;29;20055;-62
2023/12/02 06:46:52;;;;;;;39.85;22.02;;;;;;;;;;4912341;29;20058;-63
2023/12/02 06:49:18;;;;;;;43.28;21.75;;;;;;;;;;4897185;29;20028;-63
2023/12/02 06:51:44;;;;;;;44.00;22.15;;;;;;;;;;4912178;29;20062;-63
2023/12/02 06:54:10;;;;;;;44.70;21.88;;;;;;;;;;4913605;29;20032;-63
2023/12/02 06:56:36;;;;;;;41.22;21.13;;;;;;;;;;4912669;29;20024;-63
2023/12/02 06:59:03;;;;;;;43.80;21.63;;;;;;;;;;4914149;29;20088;-63
2023/12/02 07:01:30;;;;;;;38.35;21.15;;;;;;;;;;4912922;29;20035;-63
2023/12/02 07:03:57;;;;;;;40.40;20.42;;;;;;;;;;4913610;29;20080;-63
2023/12/02 07:06:23;;;;;;;41.03;20.63;;;;;;;;;;4912801;29;20201;-63
2023/12/02 07:08:50;;;;;;;35.80;17.92;;;;;;;;;;4902197;29;20024;-71
2023/12/02 07:11:16;;;;;;;36.03;18.50;;;;;;;;;;4913020;29;20485;-64
2023/12/02 07:13:42;;;;;;;38.33;18.38;;;;;;;;;;4913911;29;20115;-65
2023/12/02 07:16:08;;;;;;;32.55;18.30;;;;;;;;;;4916918;29;20028;-65
2023/12/02 07:18:34;;;;;;;45.05;20.67;;;;;;;;;;4915755;29;20058;-66
2023/12/02 07:21:01;;;;;;;36.83;18.77;;;;;;;;;;4916128;29;20458;-73
2023/12/02 07:23:28;;;;;;;37.13;18.70;;;;;;;;;;4917208;29;20429;-67
2023/12/02 07:25:55;;;;;;;35.88;18.13;;;;;;;;;;4916216;29;20036;-66
2023/12/02 07:28:21;;;;;;;35.90;18.38;;;;;;;;;;4917132;29;20028;-67
2023/12/02 07:30:50;;;;;;;34.00;17.05;;;;;;;;;;4915559;29;20031;-63
2023/12/02 07:33:16;;;;;;;33.80;17.17;;;;;;;;;;4917374;29;20043;-67
2023/12/02 07:35:42;;;;;;;34.55;18.67;;;;;;;;;;4915896;29;20044;-65
2023/12/02 07:38:08;;;;;;;36.55;19.13;;;;;;;;;;4916562;29;20051;-64
2023/12/02 07:40:35;;;;;;;35.97;18.05;;;;;;;;;;4915615;29;20025;-64
2023/12/02 07:43:01;;;;;;;33.30;16.63;;;;;;;;;;4916151;29;20020;-63
2023/12/02 07:45:27;;;;;;;35.70;18.05;;;;;;;;;;4916636;29;20036;-63
2023/12/02 07:47:53;;;;;;;34.95;18.08;;;;;;;;;;4915551;29;20028;-64
2023/12/02 07:50:19;;;;;;;32.72;16.65;;;;;;;;;;4916559;29;20037;-63
2023/12/02 07:52:46;;;;;;;30.27;16.35;;;;;;;;;;4915236;29;20461;-63
2023/12/02 07:55:12;;;;;;;31.67;17.55;;;;;;;;;;4916498;29;20426;-64
2023/12/02 07:57:38;;;;;;;35.28;18.15;;;;;;;;;;4915218;29;20031;-64
2023/12/02 08:00:04;;;;;;;31.80;15.63;;;;;;;;;;4916228;29;20035;-64
2023/12/02 08:02:30;;;;;;;33.80;16.25;;;;;;;;;;4914879;29;20024;-65
2023/12/02 08:04:57;;;;;;;30.73;16.60;;;;;;;;;;4916269;29;20039;-65
2023/12/02 08:07:23;;;;;;;34.75;15.35;;;;;;;;;;4915591;29;20052;-65
2023/12/02 08:09:49;;;;;;;31.45;14.90;;;;;;;;;;4907974;29;20028;-65
2023/12/02 08:12:15;;;;;;;31.20;15.68;;;;;;;;;;4915419;29;20071;-64
2023/12/02 08:14:41;;;;;;;27.55;14.65;;;;;;;;;;4915066;29;20099;-64
2023/12/02 08:17:07;;;;;;;31.92;16.75;;;;;;;;;;4913927;29;20016;-66
2023/12/02 08:19:33;;;;;;;34.30;17.27;;;;;;;;;;4915128;29;20339;-63
2023/12/02 08:21:59;;;;;;;30.88;17.02;;;;;;;;;;4898635;29;20075;-67
2023/12/02 08:24:25;;;;;;;33.00;16.10;;;-1.70;99.90;;;;;;4917791;29;20393;-67
2023/12/02 08:26:51;;;;;;;31.20;16.45;;;-1.70;99.90;;;;;;4914661;29;20042;-70
2023/12/02 08:29:17;;;;;;;39.63;18.55;;;-1.70;99.90;;;;;;4915682;29;20434;-72
2023/12/02 08:31:42;;;;;;;38.40;19.42;;;-1.70;99.90;;;;;;4914744;29;20088;-68
2023/12/02 08:34:08;;;;;;;35.25;18.83;;;-1.70;99.90;;;;;;4915868;29;20028;-72
2023/12/02 08:36:33;;;;;;;39.75;19.75;;;-1.60;99.90;;;;;;4913529;29;20478;-67
2023/12/02 08:38:59;;;;;;;35.08;18.15;;;-1.60;99.90;;;;;;4928420;29;20028;-68
2023/12/02 08:41:24;;;;;;;39.97;19.15;;;-1.60;99.90;;;;;;4915351;29;20104;-67
2023/12/02 08:43:50;;;;;;;35.25;18.90;;;-1.70;99.90;;;;;;4914763;29;20028;-65
2023/12/02 08:46:19;;;;;;;34.38;18.58;;;-1.70;99.90;;;;;;4915345;29;20054;-65
2023/12/02 08:48:45;;;;;;;33.45;18.20;;;-1.70;99.90;;;;;;4914825;29;20067;-66
2023/12/02 08:51:11;;;;;;;35.90;19.00;;;-1.70;99.90;;;;;;4920783;29;20024;-64
2023/12/02 08:53:37;;;;;;;38.47;18.80;;;-1.70;99.90;;;;;;4919225;29;20046;-64
2023/12/02 08:56:03;;;;;;;38.22;20.35;;;-1.70;99.90;;;;;;4917578;29;20032;-69
2023/12/02 08:58:29;;;;;;;35.90;18.33;;;-1.60;99.90;;;;;;4913726;29;20086;-67
2023/12/02 09:00:55;;;;;;;37.15;20.55;;;-1.60;99.90;;;;;;4925688;29;20458;-66
2023/12/02 09:03:20;;;;;;;39.78;21.15;;;-1.70;99.90;;;;;;4915284;29;20060;-65
2023/12/02 09:05:46;;;;;;;41.75;20.13;;;-1.70;99.90;;;;;;4914118;29;20621;-67
2023/12/02 09:08:12;;;;;;;38.05;19.70;;;-1.60;99.90;;;;;;4914872;29;20171;-65
2023/12/02 09:10:37;;;;;;;40.60;21.73;;;-1.60;99.90;;;;;;4913555;29;20039;-65
2023/12/02 09:13:32;;;;;;;32.38;18.17;;;-1.60;99.90;;;;;;4915131;29;20028;-66
2023/12/02 09:16:00;;;;;;;38.67;18.95;;;-1.50;99.90;;;;;;4896531;29;20059;-65
2023/12/02 09:18:32;;;;;;;36.78;20.17;;;-1.50;99.90;;;;;;4910889;29;20032;-65
2023/12/02 09:20:58;;;;;;;37.97;20.30;;;-1.50;99.90;;;;;;4913922;29;20025;-65
2023/12/02 09:23:24;;;;;;;41.20;20.23;;;-1.50;99.90;;;;;;4915127;29;20465;-66
2023/12/02 09:25:51;;;;;;;35.10;18.77;;;-1.40;99.90;;;;;;4914267;29;20055;-65
2023/12/02 09:28:21;;;;;;;35.35;18.98;;;-1.50;99.90;;;;;;4914808;29;20382;-66
2023/12/02 09:31:03;;;;;;;38.22;19.92;;;-1.50;99.90;;;;;;4913272;29;20028;-65
2023/12/02 09:33:29;;;;;;;39.58;20.20;;;-1.50;99.90;;;;;;4914388;29;20032;-66
2023/12/02 09:36:00;;;;;;;34.72;18.45;;;-1.50;99.90;;;;;;4912781;29;20039;-66
2023/12/02 09:38:27;;;;;;;33.70;18.02;;;-1.50;99.90;;;;;;4913800;29;20051;-65
2023/12/02 09:41:09;;;;;;;33.40;19.10;;;-1.50;99.90;;;;;;4913415;29;20765;-65
2023/12/02 09:43:46;;;;;;;33.90;17.73;;;-1.60;99.90;;;;;;4913368;29;20025;-68
2023/12/02 09:46:36;;;;;;;33.30;18.52;;;-1.60;99.90;;;;;;4912372;29;20143;-65
2023/12/02 09:49:38;;;;;;;30.67;19.23;;;-1.70;99.90;;;;;;4915796;29;20585;-66
2023/12/02 09:52:19;;;;;;;31.08;17.23;;;-1.70;99.90;;;;;;4895765;29;20036;-65
2023/12/02 09:55:02;;;;;;;34.75;17.38;;;-1.60;99.90;;;;;;4912290;29;20446;-65
2023/12/02 09:57:38;;;;;;;34.30;18.35;;;-1.70;99.90;;;;;;4913448;29;20407;-66
2023/12/02 10:00:12;;;;;;;32.17;18.45;;;-1.60;99.90;;;;;;4913891;29;20063;-66
2023/12/02 10:03:30;;;;;;;33.10;18.70;;;-1.60;99.90;;;;;;4910974;29;20020;-64
2023/12/02 10:06:17;;;;;;;30.75;17.02;;;-1.70;99.90;;;;;;4865280;29;20083;-64
2023/12/02 10:09:02;;;;;;;32.70;17.77;;;-1.60;99.90;;;;;;4912406;29;20376;-65
2023/12/02 10:11:43;;;;;;;37.15;19.02;;;-1.60;99.90;;;;;;4912827;29;20088;-64
2023/12/02 10:14:11;;;;;;;29.70;16.40;;;-1.60;99.90;;;;;;4913820;29;20446;-64
2023/12/02 10:16:39;;;;;;;30.50;16.40;;;-1.60;99.90;;;;;;4909628;29;20130;-64
2023/12/02 10:19:09;;;;;;;32.58;17.23;;;-1.60;99.90;;;;;;4913404;29;20036;-65
2023/12/02 10:21:39;;;;;;;33.60;17.58;;;-1.60;99.90;;;;;;4911977;29;20040;-64
2023/12/02 10:24:11;;;;;;;;;;;-1.60;99.90;;;;;;4913927;29;20055;-63
2023/12/02 10:26:59;;;;;;;32.05;16.67;;;-1.60;99.90;;;;;;4912190;29;19955;-64
2023/12/02 10:29:49;;;;;;;33.10;16.83;;;-1.60;99.90;;;;;;4913070;29;20035;-64
2023/12/02 10:32:37;;;;;;;31.20;17.23;;;-1.60;99.90;;;;;;4911426;29;20028;-64
2023/12/02 10:35:16;;;;;;;30.00;17.38;;;-1.70;99.90;;;;;;4911213;29;20115;-64
2023/12/02 10:37:43;;;;;;;36.38;18.52;;;-1.60;99.90;;;;;;4909685;29;20467;-64
2023/12/02 10:40:11;;;;;;;33.08;16.95;;;-1.60;99.90;;;;;;4913402;29;20048;-63
2023/12/02 10:42:51;;;;;;;30.58;17.08;;;-1.50;99.90;;;;;;4912440;29;20377;-64
2023/12/02 10:45:21;;;;;;;31.33;16.55;;;-1.50;99.90;;;;;;4911352;29;20115;-64
2023/12/02 10:47:51;;;;;;;28.80;16.80;;;-1.50;99.90;;;;;;4911434;29;20274;-67
2023/12/02 10:50:16;;;;;;;;;;;-1.60;99.90;;;;;;4917613;29;20035;-69
2023/12/02 10:53:00;;;;;;;29.23;15.57;;;-1.60;99.90;;;;;;4915510;29;20265;-65
2023/12/02 10:55:28;;;;;;;27.83;15.63;;;-1.50;99.90;;;;;;4917058;29;20032;-64
2023/12/02 10:57:57;;;;;;;29.30;16.48;;;-1.50;99.90;;;;;;4916424;29;20047;-65
2023/12/02 11:00:27;;;;;;;28.83;17.20;;;-1.60;99.90;;;;;;4915674;29;20028;-65
2023/12/02 11:03:21;;;;;;;30.55;16.60;;;-1.50;99.90;;;;;;4912748;29;20039;-64
2023/12/02 11:05:54;;;;;;;26.10;14.55;;;-1.50;99.90;;;;;;4914703;29;20048;-63
2023/12/02 11:08:23;;;;;;;23.42;13.93;;;-1.50;99.90;;;;;;4916863;29;20029;-64
2023/12/02 11:10:54;;;;;;;29.07;14.33;;;-1.60;99.90;;;;;;4915514;29;20023;-64
2023/12/02 11:13:21;;;;;;;25.85;13.90;;;-1.60;99.90;;;;;;4916628;29;20394;-64
2023/12/02 11:16:09;;;;;;;27.05;13.27;;;-1.50;99.90;;;;;;4914866;29;20076;-65
2023/12/02 11:18:50;;;;;;;25.70;13.63;;;-1.50;99.90;;;;;;4913632;29;20028;-65
2023/12/02 11:21:44;;;;;;;26.27;15.35;;;-1.50;99.90;;;;;;4914344;29;20055;-65
2023/12/02 11:24:30;;;;;;;24.20;13.50;;;-1.40;99.90;;;;;;4862917;29;20490;-64
2023/12/02 11:27:01;;;;;;;25.83;14.13;;;-1.50;99.90;;;;;;4901147;29;20443;-65
2023/12/02 11:29:53;;;;;;;22.80;13.63;;;-1.50;99.90;;;;;;4916207;29;20040;-64
2023/12/02 11:32:43;;;;;;;25.80;14.77;;;-1.50;99.90;;;;;;4915570;29;20036;-66
2023/12/02 11:35:20;;;;;;;25.92;13.52;;;-1.50;99.90;;;;;;4903285;29;20036;-66
2023/12/02 11:37:46;;;;;;;25.75;13.88;;;-1.60;99.90;;;;;;4914927;29;20051;-65
2023/12/02 11:40:47;;;;;;;21.83;12.32;;;-1.60;99.90;;;;;;4915561;29;20040;-65
2023/12/02 11:43:25;;;;;;;20.10;12.13;;;-1.60;99.90;;;;;;4900031;29;20534;-66
2023/12/02 11:45:56;;;;;;;22.67;13.13;;;-1.60;99.90;;;;;;4915126;29;20036;-65
2023/12/02 11:48:40;;;;;;;22.02;13.35;;;-1.60;99.90;;;;;;4914809;29;20541;-65
2023/12/02 11:51:35;;;;;;;22.00;12.27;;;-1.60;99.90;;;;;;4910424;29;20028;-66
2023/12/02 11:54:20;;;;;;;24.65;13.52;;;-1.70;99.90;;;;;;4910355;29;20462;-66
2023/12/02 11:57:00;;;;;;;23.42;13.10;;;-1.60;99.90;;;;;;4911828;29;20048;-64
2023/12/02 11:59:34;;;;;;;22.00;11.70;;;-1.60;99.90;;;;;;4913453;29;20039;-72
2023/12/02 12:02:16;;;;;;;24.17;13.98;;;-1.60;99.90;;;;;;4915252;29;20456;-70
2023/12/02 12:04:59;;;;;;;18.40;10.45;;;-1.60;99.90;;;;;;4913574;29;20043;-71
2023/12/02 12:07:41;;;;;;;19.17;10.57;;;-1.50;99.90;;;;;;4917494;29;20020;-69
2023/12/02 12:10:13;;;;;;;18.05;10.05;;;-1.40;99.90;;;;;;4915397;29;20028;-70
2023/12/02 12:12:42;;;;;;;15.30;9.38;;;-1.40;99.90;;;;;;4913931;29;20028;-70
2023/12/02 12:15:08;;;;;;;18.97;10.10;;;-1.40;99.90;;;;;;4915110;29;20028;-65
2023/12/02 12:17:34;;;;;;;16.60;9.82;;;-1.30;99.90;;;;;;4912314;29;20079;-64
2023/12/02 12:20:22;;;;;;;18.13;10.35;;;-1.30;99.90;;;;;;4915057;29;20025;-65
2023/12/02 12:22:48;;;;;;;19.05;10.25;;;-1.30;99.90;;;;;;4913736;29;20032;-65
2023/12/02 12:25:14;;;;;;;17.98;10.90;;;-1.30;99.90;;;;;;4914969;29;20058;-66
2023/12/02 12:27:40;;;;;;;18.02;11.18;;;-1.30;99.90;;;;;;4913895;29;20409;-65
2023/12/02 12:30:07;;;;;;;16.50;9.82;;;-1.30;99.90;;;;;;4915134;29;20024;-66
2023/12/02 12:32:32;;;;;;;16.15;9.82;;;-1.40;99.90;;;;;;4913074;29;20043;-65
2023/12/02 12:34:58;;;;;;;13.15;8.48;;;-1.40;99.90;;;;;;4914344;29;20036;-69
2023/12/02 12:37:24;;;;;;;15.70;9.73;;;-1.50;99.90;;;;;;4910961;29;20051;-65
2023/12/02 12:39:50;;;;;;;16.13;10.27;;;-1.50;99.90;;;;;;4913624;29;20032;-67
2023/12/02 12:42:19;;;;;;;19.45;10.32;;;-1.60;99.90;;;;;;4914166;29;20071;-69
2023/12/02 12:44:45;;;;;;;;;;;-1.50;99.90;;;;;;4914407;29;20044;-66
2023/12/02 12:47:12;;;;;;;14.70;8.90;;;-1.50;99.90;;;;;;4914175;29;19917;-64
2023/12/02 12:49:42;;;;;;;12.73;7.88;;;-1.60;99.90;;;;;;4906283;29;20060;-65
2023/12/02 12:52:10;;;;;;;15.68;9.50;;;-1.60;99.90;;;;;;4909227;29;20028;-65
2023/12/02 12:54:46;;;;;;;15.63;10.40;;;-1.70;99.90;;;;;;4914037;29;20474;-65
2023/12/02 12:57:13;;;;;;;17.85;11.02;;;-1.70;99.90;;;;;;4913872;29;20039;-65
2023/12/02 12:59:41;;;;;;;18.73;11.38;;;-1.70;99.90;;;;;;4913477;29;20028;-66
2023/12/02 13:02:18;;;;;;;18.00;10.88;;;-1.70;99.90;;;;;;4914686;29;20040;-66
2023/12/02 13:04:53;;;;;;;18.40;11.32;;;-1.80;99.90;;;;;;4914155;29;20043;-70
2023/12/02 13:07:30;;;;;;;18.33;11.00;;;-1.80;99.90;;;;;;4902706;29;20059;-65
2023/12/02 13:10:01;;;;;;;15.15;9.30;;;-1.80;99.90;;;;;;4914618;29;20032;-65
2023/12/02 13:12:28;;;;;;;19.13;10.98;;;-1.80;99.90;;;;;;4913380;29;20043;-65